Time;durP1;ratioP1;P1;durP2;ratioP2;P2;SDS_P1;SDS_P2;PMS_P1;PMS_P2;Temp;Humidity;BMP_temperature;BMP_pressure;BME280_temperature;BME280_humidity;BME280_pressure;Samples;Min_cycle;Max_cycle;Signal;HPM_P1;HPM_P2
2022/02/21 00:00:12;;;;;;;7.13;1.27;;;;;;;;;;526700;28;1511;-71
2022/02/21 00:00:28;;;;;;;6.25;1.20;;;;;;;;;;527431;28;1351;-69
2022/02/21 00:00:43;;;;;;;5.25;1.17;;;;;;;;;;528134;28;744;-70
2022/02/21 00:00:59;;;;;;;4.57;1.00;;;;;;;;;;525921;28;1186;-70
2022/02/21 00:01:15;;;;;;;5.25;1.20;;;;;;;;;;526152;28;772;-70
2022/02/21 00:01:30;;;;;;;5.20;1.23;;;;;;;;;;525932;28;732;-70
2022/02/21 00:01:45;;;;;;;5.80;1.20;;;;;;;;;;526640;28;825;-70
2022/02/21 00:02:01;;;;;;;5.55;1.27;;;;;;;;;;527834;28;843;-72
2022/02/21 00:02:17;;;;;;;4.68;1.23;;;;;;;;;;529583;27;934;-72
2022/02/21 00:02:32;;;;;;;5.57;1.40;;;;;;;;;;529833;27;825;-70
2022/02/21 00:02:50;;;;;;;7.03;1.53;;;;;;;;;;530038;27;579;-70
2022/02/21 00:03:06;;;;;;;7.10;1.60;;;;;;;;;;530123;27;883;-70
2022/02/21 00:03:22;;;;;;;5.72;1.42;;;;;;;;;;530459;27;847;-70
2022/02/21 00:03:38;;;;;;;5.65;1.30;;;;;;;;;;530397;27;846;-70
2022/02/21 00:03:53;;;;;;;5.77;1.30;;;;;;;;;;530208;27;851;-72
2022/02/21 00:04:08;;;;;;;6.13;1.30;;;;;;;;;;529965;27;854;-71
2022/02/21 00:04:24;;;;;;;4.97;1.20;;;;;;;;;;529796;27;1143;-70
2022/02/21 00:04:39;;;;;;;5.03;1.23;;;;;;;;;;530178;27;1270;-70
2022/02/21 00:04:54;;;;;;;5.73;1.17;;;;;;;;;;530047;27;910;-70
2022/02/21 00:05:16;;;;;;;4.82;1.27;;;;;;;;;;528261;27;1462;-70
2022/02/21 00:05:31;;;;;;;6.47;1.60;;;;;;;;;;528707;27;1367;-70
2022/02/21 00:05:50;;;;;;;6.70;1.60;;;;;;;;;;529729;27;810;-71
2022/02/21 00:06:05;;;;;;;6.78;1.70;;;;;;;;;;526964;28;1221;-71
2022/02/21 00:06:21;;;;;;;6.33;1.40;;;;;;;;;;526061;28;772;-72
2022/02/21 00:06:36;;;;;;;5.83;1.40;;;;;;;;;;526929;28;1123;-71
2022/02/21 00:06:51;;;;;;;6.18;1.42;;;;;;;;;;528204;28;1312;-71
2022/02/21 00:07:06;;;;;;;6.37;1.30;;;;;;;;;;528662;27;950;-70
2022/02/21 00:07:22;;;;;;;5.43;1.30;;;;;;;;;;528108;28;1135;-70
2022/02/21 00:07:37;;;;;;;5.07;1.30;;;;;;;;;;528065;28;969;-70
2022/02/21 00:07:53;;;;;;;5.60;1.25;;;;;;;;;;525948;28;1353;-70
2022/02/21 00:08:08;;;;;;;6.20;1.60;;;;;;;;;;525921;28;1228;-70
2022/02/21 00:08:23;;;;;;;6.53;1.67;;;;;;;;;;525924;28;951;-70
2022/02/21 00:08:38;;;;;;;5.60;1.33;;;;;;;;;;525453;28;895;-70
2022/02/21 00:08:54;;;;;;;5.03;1.33;;;;;;;;;;525824;28;1151;-70
2022/02/21 00:09:10;;;;;;;4.90;1.30;;;;;;;;;;525763;28;1282;-70
2022/02/21 00:09:25;;;;;;;5.85;1.40;;;;;;;;;;528274;28;907;-70
2022/02/21 00:09:41;;;;;;;6.17;1.50;;;;;;;;;;528255;28;767;-70
2022/02/21 00:09:56;;;;;;;5.60;1.50;;;;;;;;;;527963;28;1557;-69
2022/02/21 00:10:12;;;;;;;6.55;1.50;;;;;;;;;;528838;27;808;-69
2022/02/21 00:10:28;;;;;;;8.25;1.55;;;;;;;;;;530330;27;945;-69
2022/02/21 00:10:43;;;;;;;7.67;1.50;;;;;;;;;;527942;28;795;-69
2022/02/21 00:10:58;;;;;;;5.88;1.30;;;;;;;;;;526533;28;1314;-70
2022/02/21 00:11:14;;;;;;;6.30;1.50;;;;;;;;;;526774;28;1171;-70
2022/02/21 00:11:29;;;;;;;6.20;1.42;;;;;;;;;;525973;28;1237;-69
2022/02/21 00:11:45;;;;;;;7.93;1.67;;;;;;;;;;526021;28;799;-69
2022/02/21 00:12:00;;;;;;;7.43;1.70;;;;;;;;;;526130;28;780;-69
2022/02/21 00:12:15;;;;;;;6.07;1.47;;;;;;;;;;526102;28;811;-70
2022/02/21 00:12:31;;;;;;;7.03;1.60;;;;;;;;;;526096;28;804;-71
2022/02/21 00:12:46;;;;;;;6.35;1.48;;;;;;;;;;525702;28;1119;-71
2022/02/21 00:13:02;;;;;;;6.57;1.30;;;;;;;;;;526127;28;744;-70
2022/02/21 00:13:17;;;;;;;7.07;1.45;;;;;;;;;;526112;28;903;-69
2022/02/21 00:13:32;;;;;;;6.17;1.47;;;;;;;;;;528223;28;903;-70
2022/02/21 00:13:47;;;;;;;6.60;1.53;;;;;;;;;;528357;28;915;-70
2022/02/21 00:14:03;;;;;;;6.50;1.70;;;;;;;;;;527889;28;1353;-70
2022/02/21 00:14:18;;;;;;;6.97;1.67;;;;;;;;;;528343;28;819;-71
2022/02/21 00:14:34;;;;;;;7.37;1.60;;;;;;;;;;528257;28;914;-70
2022/02/21 00:14:49;;;;;;;5.78;1.45;;;;;;;;;;527465;28;1166;-70
2022/02/21 00:15:06;;;;;;;6.27;1.67;;;;;;;;;;528682;27;1463;-71
2022/02/21 00:15:23;;;;;;;7.68;1.70;;;;;;;;;;527632;28;1401;-71
2022/02/21 00:15:39;;;;;;;6.75;1.50;;;;;;;;;;526107;28;811;-69
2022/02/21 00:15:54;;;;;;;7.83;1.60;;;;;;;;;;524608;28;1914;-70
2022/02/21 00:16:09;;;;;;;7.63;1.50;;;;;;;;;;527738;28;863;-69
2022/02/21 00:16:25;;;;;;;6.07;1.30;;;;;;;;;;526280;28;1505;-70
2022/02/21 00:16:40;;;;;;;6.40;1.40;;;;;;;;;;526231;28;934;-69
2022/02/21 00:16:55;;;;;;;5.90;1.40;;;;;;;;;;525992;28;756;-69
2022/02/21 00:17:13;;;;;;;6.32;1.40;;;;;;;;;;524105;28;1254;-69
2022/02/21 00:17:28;;;;;;;7.03;1.60;;;;;;;;;;524753;28;887;-70
2022/02/21 00:17:44;;;;;;;6.90;1.50;;;;;;;;;;526405;28;792;-69
2022/02/21 00:18:01;;;;;;;6.95;1.63;;;;;;;;;;526197;28;979;-71
2022/02/21 00:18:16;;;;;;;5.90;1.60;;;;;;;;;;527115;28;823;-72
2022/02/21 00:18:31;;;;;;;6.63;1.70;;;;;;;;;;528493;28;926;-71
2022/02/21 00:18:47;;;;;;;7.65;1.73;;;;;;;;;;528361;28;978;-70
2022/02/21 00:19:02;;;;;;;7.17;1.60;;;;;;;;;;527684;28;788;-71
2022/02/21 00:19:18;;;;;;;6.07;1.63;;;;;;;;;;528507;28;902;-70
2022/02/21 00:19:33;;;;;;;6.43;1.67;;;;;;;;;;528575;28;994;-70
2022/02/21 00:19:48;;;;;;;7.83;1.80;;;;;;;;;;529791;27;921;-71
2022/02/21 00:20:04;;;;;;;6.38;1.63;;;;;;;;;;529460;27;1587;-71
2022/02/21 00:20:20;;;;;;;6.05;1.50;;;;;;;;;;529621;27;1341;-70
2022/02/21 00:20:35;;;;;;;7.18;1.60;;;;;;;;;;526834;28;1178;-70
2022/02/21 00:20:52;;;;;;;6.63;1.40;;;;;;;;;;526260;28;725;-70
2022/02/21 00:21:08;;;;;;;6.18;1.40;;;;;;;;;;527349;28;863;-69
2022/02/21 00:21:23;;;;;;;6.77;1.60;;;;;;;;;;528309;28;756;-70
2022/02/21 00:21:39;;;;;;;7.13;1.60;;;;;;;;;;528280;28;775;-69
2022/02/21 00:21:54;;;;;;;8.20;1.73;;;;;;;;;;528338;28;741;-70
2022/02/21 00:22:09;;;;;;;7.80;1.77;;;;;;;;;;527821;28;843;-70
2022/02/21 00:22:26;;;;;;;6.93;1.70;;;;;;;;;;528512;28;728;-69
2022/02/21 00:22:41;;;;;;;7.70;1.83;;;;;;;;;;528700;28;910;-70
2022/02/21 00:22:57;;;;;;;8.53;1.83;;;;;;;;;;528410;28;1367;-69
2022/02/21 00:23:13;;;;;;;7.60;1.73;;;;;;;;;;527931;28;760;-70
2022/02/21 00:23:28;;;;;;;7.07;1.80;;;;;;;;;;528636;28;854;-69
2022/02/21 00:23:43;;;;;;;8.20;1.67;;;;;;;;;;528534;28;796;-69
2022/02/21 00:23:59;;;;;;;7.90;1.60;;;;;;;;;;528202;28;779;-70
2022/02/21 00:24:14;;;;;;;6.13;1.50;;;;;;;;;;528366;28;922;-70
2022/02/21 00:24:29;;;;;;;6.13;1.33;;;;;;;;;;528307;28;1170;-69
2022/02/21 00:24:45;;;;;;;7.77;1.67;;;;;;;;;;528164;28;878;-70
2022/02/21 00:25:00;;;;;;;8.13;1.80;;;;;;;;;;527806;27;1530;-70
2022/02/21 00:25:15;;;;;;;8.23;1.67;;;;;;;;;;528776;27;777;-72
2022/02/21 00:25:31;;;;;;;8.37;1.70;;;;;;;;;;528675;27;1665;-71
2022/02/21 00:25:46;;;;;;;7.05;1.60;;;;;;;;;;529918;27;986;-70
2022/02/21 00:26:02;;;;;;;6.87;1.70;;;;;;;;;;530383;27;784;-70
2022/02/21 00:26:18;;;;;;;7.20;1.70;;;;;;;;;;530001;27;1193;-70
2022/02/21 00:26:33;;;;;;;7.18;1.58;;;;;;;;;;528201;28;827;-71
2022/02/21 00:26:49;;;;;;;7.67;1.83;;;;;;;;;;528637;28;764;-70
2022/02/21 00:27:04;;;;;;;7.97;1.97;;;;;;;;;;530069;27;962;-71
2022/02/21 00:27:20;;;;;;;7.85;1.80;;;;;;;;;;527849;28;1192;-70
2022/02/21 00:27:36;;;;;;;8.75;1.88;;;;;;;;;;525933;28;1377;-71
2022/02/21 00:27:52;;;;;;;9.55;2.00;;;;;;;;;;526127;28;812;-70
2022/02/21 00:28:07;;;;;;;8.07;1.90;;;;;;;;;;526047;28;843;-71
2022/02/21 00:28:22;;;;;;;8.40;1.80;;;;;;;;;;526367;28;974;-70
2022/02/21 00:28:37;;;;;;;7.67;1.70;;;;;;;;;;527246;27;1289;-70
2022/02/21 00:28:53;;;;;;;7.63;1.80;;;;;;;;;;526526;28;1433;-70
2022/02/21 00:29:08;;;;;;;8.70;1.90;;;;;;;;;;526158;28;1358;-70
2022/02/21 00:29:24;;;;;;;7.25;1.50;;;;;;;;;;529442;27;1459;-70
2022/02/21 00:29:39;;;;;;;7.40;1.60;;;;;;;;;;530841;27;1037;-70
2022/02/21 00:29:54;;;;;;;6.17;1.43;;;;;;;;;;530402;27;851;-70
2022/02/21 00:30:10;;;;;;;5.20;1.40;;;;;;;;;;528634;27;1603;-70
2022/02/21 00:30:25;;;;;;;6.43;1.50;;;;;;;;;;528275;28;1072;-69
2022/02/21 00:30:40;;;;;;;7.87;1.63;;;;;;;;;;526180;28;850;-70
2022/02/21 00:30:56;;;;;;;9.27;1.97;;;;;;;;;;526461;28;795;-70
2022/02/21 00:31:11;;;;;;;9.07;1.98;;;;;;;;;;528150;28;839;-70
2022/02/21 00:31:27;;;;;;;10.03;1.80;;;;;;;;;;526110;28;1467;-70
2022/02/21 00:31:42;;;;;;;9.63;1.80;;;;;;;;;;526013;28;863;-77
2022/02/21 00:31:57;;;;;;;7.67;1.70;;;;;;;;;;526334;28;1316;-76
2022/02/21 00:32:12;;;;;;;9.33;1.70;;;;;;;;;;528198;28;1008;-75
2022/02/21 00:32:28;;;;;;;10.13;1.90;;;;;;;;;;530252;28;1269;-77
2022/02/21 00:32:43;;;;;;;8.85;1.98;;;;;;;;;;530367;27;1166;-75
2022/02/21 00:32:58;;;;;;;9.83;2.30;;;;;;;;;;530563;27;855;-75
2022/02/21 00:33:13;;;;;;;9.70;2.17;;;;;;;;;;530322;27;1210;-76
2022/02/21 00:33:29;;;;;;;10.00;1.98;;;;;;;;;;530267;27;791;-76
2022/02/21 00:33:44;;;;;;;10.27;2.10;;;;;;;;;;528171;28;1171;-76
2022/02/21 00:33:59;;;;;;;9.67;2.20;;;;;;;;;;525817;28;1229;-75
2022/02/21 00:34:14;;;;;;;9.40;2.00;;;;;;;;;;525929;28;820;-77
2022/02/21 00:34:30;;;;;;;7.85;1.80;;;;;;;;;;524137;28;856;-79
2022/02/21 00:34:45;;;;;;;8.97;2.00;;;;;;;;;;524090;28;978;-79
2022/02/21 00:35:01;;;;;;;9.47;2.10;;;;;;;;;;524646;28;1577;-79
2022/02/21 00:35:16;;;;;;;8.77;1.77;;;;;;;;;;524192;28;1123;-78
2022/02/21 00:35:31;;;;;;;6.97;1.50;;;;;;;;;;526381;28;713;-77
2022/02/21 00:35:47;;;;;;;5.43;1.30;;;;;;;;;;525665;28;1111;-77
2022/02/21 00:36:03;;;;;;;7.07;1.40;;;;;;;;;;527723;28;1918;-79
2022/02/21 00:36:18;;;;;;;5.80;1.30;;;;;;;;;;526107;28;1186;-82
2022/02/21 00:36:33;;;;;;;4.57;1.10;;;;;;;;;;526202;28;740;-81
2022/02/21 00:36:48;;;;;;;5.07;1.27;;;;;;;;;;526172;28;1361;-82
2022/02/21 00:37:04;;;;;;;4.65;1.30;;;;;;;;;;526386;28;760;-82
2022/02/21 00:37:19;;;;;;;5.23;1.33;;;;;;;;;;528545;28;870;-83
2022/02/21 00:37:34;;;;;;;5.00;1.27;;;;;;;;;;528960;28;985;-81
2022/02/21 00:37:50;;;;;;;4.07;1.00;;;;;;;;;;530510;27;768;-83
2022/02/21 00:38:05;;;;;;;4.37;0.90;;;;;;;;;;530657;27;827;-83
2022/02/21 00:38:21;;;;;;;4.23;0.90;;;;;;;;;;530765;27;819;-80
2022/02/21 00:38:37;;;;;;;3.78;0.90;;;;;;;;;;530667;27;807;-77
2022/02/21 00:38:52;;;;;;;3.87;0.87;;;;;;;;;;530734;27;816;-78
2022/02/21 00:39:07;;;;;;;3.83;1.00;;;;;;;;;;530108;27;893;-78
2022/02/21 00:39:22;;;;;;;4.90;1.00;;;;;;;;;;530724;27;842;-77
2022/02/21 00:39:38;;;;;;;4.70;0.83;;;;;;;;;;530779;27;732;-77
2022/02/21 00:39:53;;;;;;;3.37;0.80;;;;;;;;;;529872;27;1229;-76
2022/02/21 00:40:09;;;;;;;3.33;0.80;;;;;;;;;;528828;27;1465;-77
2022/02/21 00:40:24;;;;;;;3.45;0.70;;;;;;;;;;530391;27;1583;-77
2022/02/21 00:40:39;;;;;;;2.60;0.60;;;;;;;;;;530459;27;1490;-76
2022/02/21 00:40:54;;;;;;;2.72;0.60;;;;;;;;;;528342;28;1158;-77
2022/02/21 00:41:10;;;;;;;3.37;0.60;;;;;;;;;;526247;28;1235;-76
2022/02/21 00:41:25;;;;;;;3.37;0.63;;;;;;;;;;524092;28;1285;-77
2022/02/21 00:41:40;;;;;;;3.58;0.60;;;;;;;;;;524347;28;899;-77
2022/02/21 00:41:56;;;;;;;3.53;0.60;;;;;;;;;;523758;28;1163;-77
2022/02/21 00:42:11;;;;;;;3.80;0.70;;;;;;;;;;524173;28;756;-77
2022/02/21 00:42:26;;;;;;;3.65;0.77;;;;;;;;;;521960;28;1296;-77
2022/02/21 00:42:42;;;;;;;4.10;0.93;;;;;;;;;;522403;28;783;-76
2022/02/21 00:42:57;;;;;;;4.10;0.83;;;;;;;;;;524177;28;1159;-77
2022/02/21 00:43:12;;;;;;;3.38;0.60;;;;;;;;;;525137;28;1488;-75
2022/02/21 00:43:28;;;;;;;4.20;0.63;;;;;;;;;;527974;28;1427;-76
2022/02/21 00:43:43;;;;;;;4.63;0.75;;;;;;;;;;524822;28;1465;-76
2022/02/21 00:43:58;;;;;;;4.63;0.80;;;;;;;;;;525725;28;818;-76
2022/02/21 00:44:14;;;;;;;4.80;0.83;;;;;;;;;;526104;28;732;-76
2022/02/21 00:44:29;;;;;;;4.63;0.70;;;;;;;;;;524238;28;1221;-75
2022/02/21 00:44:44;;;;;;;5.03;0.80;;;;;;;;;;524344;28;804;-75
2022/02/21 00:45:00;;;;;;;4.67;0.80;;;;;;;;;;523960;28;1547;-76
2022/02/21 00:45:15;;;;;;;3.30;0.80;;;;;;;;;;525811;28;772;-76
2022/02/21 00:45:31;;;;;;;3.27;0.80;;;;;;;;;;525724;28;1249;-77
2022/02/21 00:45:46;;;;;;;3.42;0.70;;;;;;;;;;525567;28;819;-77
2022/02/21 00:46:01;;;;;;;3.20;0.77;;;;;;;;;;526093;28;819;-77
2022/02/21 00:46:17;;;;;;;3.70;0.80;;;;;;;;;;528211;28;969;-77
2022/02/21 00:46:32;;;;;;;3.53;0.73;;;;;;;;;;530373;27;922;-76
2022/02/21 00:46:47;;;;;;;3.03;0.70;;;;;;;;;;530502;27;1073;-76
2022/02/21 00:47:03;;;;;;;3.50;0.70;;;;;;;;;;530270;27;1037;-76
2022/02/21 00:47:18;;;;;;;3.42;0.60;;;;;;;;;;528131;28;1383;-77
2022/02/21 00:47:34;;;;;;;3.60;0.63;;;;;;;;;;528970;28;1150;-76
2022/02/21 00:47:49;;;;;;;4.03;0.73;;;;;;;;;;528262;28;1225;-76
2022/02/21 00:48:05;;;;;;;4.23;0.90;;;;;;;;;;527970;28;1288;-77
2022/02/21 00:48:20;;;;;;;4.18;0.90;;;;;;;;;;527815;28;1177;-76
2022/02/21 00:48:35;;;;;;;3.40;0.60;;;;;;;;;;528198;28;1279;-77
2022/02/21 00:48:50;;;;;;;3.73;0.70;;;;;;;;;;528059;28;1150;-77
2022/02/21 00:49:06;;;;;;;3.47;0.70;;;;;;;;;;526988;28;922;-78
2022/02/21 00:49:21;;;;;;;2.75;0.60;;;;;;;;;;528295;28;737;-78
2022/02/21 00:49:36;;;;;;;3.10;0.60;;;;;;;;;;530301;27;1130;-76
2022/02/21 00:49:53;;;;;;;3.33;0.80;;;;;;;;;;528410;28;826;-75
2022/02/21 00:50:09;;;;;;;3.40;0.70;;;;;;;;;;528432;28;1502;-76
2022/02/21 00:50:24;;;;;;;4.00;0.73;;;;;;;;;;529330;27;1450;-74
2022/02/21 00:50:40;;;;;;;4.03;0.77;;;;;;;;;;528846;27;980;-75
2022/02/21 00:50:55;;;;;;;3.23;0.70;;;;;;;;;;528484;28;728;-74
2022/02/21 00:51:11;;;;;;;3.40;0.53;;;;;;;;;;529980;27;1134;-75
2022/02/21 00:51:26;;;;;;;4.10;0.70;;;;;;;;;;530605;27;850;-75
2022/02/21 00:51:41;;;;;;;4.13;0.70;;;;;;;;;;530343;27;847;-76
2022/02/21 00:51:58;;;;;;;3.63;0.60;;;;;;;;;;529029;27;1183;-75
2022/02/21 00:52:14;;;;;;;2.85;0.60;;;;;;;;;;525984;27;2272;-74
2022/02/21 00:52:29;;;;;;;3.87;0.80;;;;;;;;;;528711;27;3265;-75
2022/02/21 00:52:44;;;;;;;4.07;1.00;;;;;;;;;;528656;28;1346;-75
2022/02/21 00:53:00;;;;;;;3.70;0.90;;;;;;;;;;529205;27;1216;-75
2022/02/21 00:53:15;;;;;;;4.10;0.80;;;;;;;;;;528761;27;1354;-75
2022/02/21 00:53:30;;;;;;;3.57;0.87;;;;;;;;;;529161;27;1319;-76
2022/02/21 00:53:45;;;;;;;2.90;0.90;;;;;;;;;;528873;27;1405;-76
2022/02/21 00:54:01;;;;;;;2.50;0.70;;;;;;;;;;528587;27;1303;-77
2022/02/21 00:54:16;;;;;;;3.30;0.67;;;;;;;;;;528709;28;1334;-83
2022/02/21 00:54:31;;;;;;;4.17;0.80;;;;;;;;;;528431;28;846;-81
2022/02/21 00:54:47;;;;;;;2.88;0.60;;;;;;;;;;528101;28;1282;-83
2022/02/21 00:55:03;;;;;;;2.95;0.60;;;;;;;;;;528145;27;1557;-82
2022/02/21 00:55:19;;;;;;;3.08;0.70;;;;;;;;;;529532;27;827;-83
2022/02/21 00:55:34;;;;;;;3.50;0.80;;;;;;;;;;529408;27;721;-81
2022/02/21 00:55:50;;;;;;;4.32;0.80;;;;;;;;;;528014;28;803;-82
2022/02/21 00:56:06;;;;;;;3.43;0.70;;;;;;;;;;529214;27;1914;-84
2022/02/21 00:56:22;;;;;;;2.53;0.70;;;;;;;;;;528171;28;1266;-83
2022/02/21 00:56:37;;;;;;;3.20;0.75;;;;;;;;;;528472;28;826;-83
2022/02/21 00:56:53;;;;;;;3.53;0.60;;;;;;;;;;529734;27;815;-81
2022/02/21 00:57:08;;;;;;;2.63;0.70;;;;;;;;;;529074;27;926;-83
2022/02/21 00:57:23;;;;;;;2.67;0.73;;;;;;;;;;528238;28;1418;-80
2022/02/21 00:57:38;;;;;;;2.47;0.60;;;;;;;;;;528313;28;958;-81
2022/02/21 00:57:54;;;;;;;1.80;0.60;;;;;;;;;;527916;28;1273;-81
2022/02/21 00:58:09;;;;;;;1.67;0.40;;;;;;;;;;525984;28;1437;-81
2022/02/21 00:58:24;;;;;;;2.08;0.45;;;;;;;;;;525525;28;1516;-80
2022/02/21 00:58:39;;;;;;;2.87;0.60;;;;;;;;;;525146;28;1167;-82
2022/02/21 00:58:55;;;;;;;2.77;0.50;;;;;;;;;;525530;28;866;-81
2022/02/21 00:59:10;;;;;;;2.10;0.40;;;;;;;;;;525904;28;1241;-81
2022/02/21 00:59:25;;;;;;;2.17;0.47;;;;;;;;;;526129;28;1354;-74
2022/02/21 00:59:41;;;;;;;2.53;0.40;;;;;;;;;;526577;28;776;-76
2022/02/21 00:59:56;;;;;;;2.50;0.40;;;;;;;;;;525539;28;1404;-82
2022/02/21 01:00:12;;;;;;;2.80;0.50;;;;;;;;;;526238;28;1229;-82
2022/02/21 01:00:27;;;;;;;2.45;0.50;;;;;;;;;;526383;28;1272;-81
2022/02/21 01:00:43;;;;;;;2.10;0.60;;;;;;;;;;526299;28;930;-82
2022/02/21 01:00:58;;;;;;;1.95;0.52;;;;;;;;;;526410;28;950;-81
2022/02/21 01:01:13;;;;;;;1.77;0.50;;;;;;;;;;528543;27;969;-83
2022/02/21 01:01:29;;;;;;;3.30;0.50;;;;;;;;;;530462;27;827;-79
2022/02/21 01:01:44;;;;;;;3.13;0.50;;;;;;;;;;530253;27;1281;-82
2022/02/21 01:02:00;;;;;;;2.00;0.47;;;;;;;;;;530355;27;1354;-79
2022/02/21 01:02:15;;;;;;;3.15;0.65;;;;;;;;;;529397;28;806;-81
2022/02/21 01:02:32;;;;;;;3.10;0.63;;;;;;;;;;528546;28;926;-82
2022/02/21 01:02:47;;;;;;;2.45;0.50;;;;;;;;;;526130;28;1445;-82
2022/02/21 01:03:03;;;;;;;2.57;0.50;;;;;;;;;;526719;28;1251;-83
2022/02/21 01:03:18;;;;;;;1.77;0.50;;;;;;;;;;524539;28;1375;-83
2022/02/21 01:03:34;;;;;;;2.17;0.60;;;;;;;;;;524539;28;1256;-84
2022/02/21 01:03:49;;;;;;;2.47;0.50;;;;;;;;;;524545;28;938;-82
2022/02/21 01:04:04;;;;;;;2.23;0.43;;;;;;;;;;524113;28;848;-82
2022/02/21 01:04:20;;;;;;;2.23;0.53;;;;;;;;;;524428;28;828;-82
2022/02/21 01:04:35;;;;;;;2.53;0.50;;;;;;;;;;524235;28;1147;-81
2022/02/21 01:04:50;;;;;;;2.70;0.50;;;;;;;;;;524136;28;721;-83
2022/02/21 01:05:06;;;;;;;2.17;0.50;;;;;;;;;;526131;28;1412;-83
2022/02/21 01:05:22;;;;;;;1.50;0.40;;;;;;;;;;526727;28;1192;-83
2022/02/21 01:05:40;;;;;;;1.40;0.40;;;;;;;;;;526143;28;1146;-84
2022/02/21 01:05:55;;;;;;;1.85;0.40;;;;;;;;;;525508;28;1259;-83
2022/02/21 01:06:11;;;;;;;1.63;0.40;;;;;;;;;;526223;28;827;-83
2022/02/21 01:06:26;;;;;;;2.05;0.50;;;;;;;;;;527462;28;769;-84
2022/02/21 01:06:42;;;;;;;2.30;0.50;;;;;;;;;;526206;28;1198;-82
2022/02/21 01:06:57;;;;;;;2.47;0.50;;;;;;;;;;525639;28;1151;-83
2022/02/21 01:07:13;;;;;;;2.30;0.50;;;;;;;;;;525518;28;1650;-84
2022/02/21 01:07:28;;;;;;;1.97;0.50;;;;;;;;;;527524;28;819;-83
2022/02/21 01:07:43;;;;;;;2.13;0.40;;;;;;;;;;528979;28;784;-82
2022/02/21 01:07:58;;;;;;;2.38;0.40;;;;;;;;;;529031;28;811;-82
2022/02/21 01:08:14;;;;;;;3.10;0.50;;;;;;;;;;527496;28;1179;-84
2022/02/21 01:08:29;;;;;;;2.70;0.50;;;;;;;;;;527007;28;922;-81
2022/02/21 01:08:45;;;;;;;1.63;0.55;;;;;;;;;;528768;28;863;-83
2022/02/21 01:09:00;;;;;;;1.90;0.50;;;;;;;;;;526177;28;1202;-84
2022/02/21 01:09:16;;;;;;;1.95;0.40;;;;;;;;;;526442;28;1167;-84
2022/02/21 01:09:31;;;;;;;1.73;0.37;;;;;;;;;;526771;28;732;-83
2022/02/21 01:09:46;;;;;;;2.93;0.47;;;;;;;;;;526457;28;863;-84
2022/02/21 01:10:02;;;;;;;3.80;0.63;;;;;;;;;;527045;28;1770;-83
2022/02/21 01:10:18;;;;;;;3.13;0.63;;;;;;;;;;529193;28;889;-84
2022/02/21 01:10:33;;;;;;;3.40;0.60;;;;;;;;;;528480;28;918;-85
2022/02/21 01:10:48;;;;;;;3.90;0.60;;;;;;;;;;527209;28;1326;-83
2022/02/21 01:11:04;;;;;;;2.87;0.60;;;;;;;;;;528206;28;863;-84
2022/02/21 01:11:20;;;;;;;2.60;0.57;;;;;;;;;;527670;28;1138;-84
2022/02/21 01:11:36;;;;;;;2.53;0.50;;;;;;;;;;528884;28;851;-83
2022/02/21 01:11:51;;;;;;;1.90;0.40;;;;;;;;;;528675;28;839;-83
2022/02/21 01:12:07;;;;;;;2.22;0.50;;;;;;;;;;528996;28;890;-86
2022/02/21 01:12:22;;;;;;;2.65;0.60;;;;;;;;;;526722;28;753;-85
2022/02/21 01:12:38;;;;;;;2.17;0.50;;;;;;;;;;527547;28;791;-84
2022/02/21 01:12:53;;;;;;;2.80;0.50;;;;;;;;;;527354;28;1162;-85
2022/02/21 01:13:08;;;;;;;3.35;0.60;;;;;;;;;;527117;28;922;-84
2022/02/21 01:13:24;;;;;;;2.53;0.50;;;;;;;;;;528910;28;777;-82
2022/02/21 01:13:39;;;;;;;3.33;0.53;;;;;;;;;;529348;28;808;-84
2022/02/21 01:13:55;;;;;;;2.92;0.45;;;;;;;;;;529124;28;752;-83
2022/02/21 01:14:10;;;;;;;2.00;0.40;;;;;;;;;;526801;28;1306;-84
2022/02/21 01:14:25;;;;;;;2.13;0.50;;;;;;;;;;526892;28;827;-83
2022/02/21 01:14:41;;;;;;;2.17;0.53;;;;;;;;;;526980;28;1124;-84
2022/02/21 01:14:57;;;;;;;2.20;0.55;;;;;;;;;;526034;28;1706;-83
2022/02/21 01:15:14;;;;;;;1.60;0.50;;;;;;;;;;525739;28;1270;-83
2022/02/21 01:15:29;;;;;;;2.13;0.52;;;;;;;;;;526040;28;1397;-85
2022/02/21 01:15:45;;;;;;;2.73;0.50;;;;;;;;;;524264;28;1108;-84
2022/02/21 01:16:00;;;;;;;1.70;0.40;;;;;;;;;;525589;28;1898;-85
2022/02/21 01:16:15;;;;;;;2.33;0.60;;;;;;;;;;526758;28;748;-84
2022/02/21 01:16:31;;;;;;;2.97;0.60;;;;;;;;;;524855;28;1313;-85
2022/02/21 01:16:46;;;;;;;2.90;0.55;;;;;;;;;;525630;28;1303;-85
2022/02/21 01:17:01;;;;;;;3.67;0.60;;;;;;;;;;524956;28;1079;-83
2022/02/21 01:17:19;;;;;;;3.17;0.50;;;;;;;;;;524341;28;1131;-85
2022/02/21 01:17:34;;;;;;;2.05;0.40;;;;;;;;;;526805;28;756;-83
2022/02/21 01:17:50;;;;;;;2.10;0.53;;;;;;;;;;525049;28;1157;-85
2022/02/21 01:18:05;;;;;;;3.08;0.60;;;;;;;;;;524882;28;791;-84
2022/02/21 01:18:21;;;;;;;2.80;0.50;;;;;;;;;;524884;28;1160;-85
2022/02/21 01:18:37;;;;;;;1.70;0.40;;;;;;;;;;524804;28;808;-84
2022/02/21 01:18:52;;;;;;;2.22;0.50;;;;;;;;;;522564;28;883;-85
2022/02/21 01:19:08;;;;;;;2.60;0.50;;;;;;;;;;523434;28;1228;-84
2022/02/21 01:19:23;;;;;;;3.00;0.50;;;;;;;;;;520261;28;1243;-84
2022/02/21 01:19:38;;;;;;;2.27;0.50;;;;;;;;;;520998;28;1203;-84
2022/02/21 01:19:53;;;;;;;1.80;0.50;;;;;;;;;;523074;28;911;-83
2022/02/21 01:20:11;;;;;;;2.35;0.45;;;;;;;;;;520254;28;1568;-84
2022/02/21 01:20:26;;;;;;;2.03;0.50;;;;;;;;;;523121;28;852;-83
2022/02/21 01:20:42;;;;;;;2.30;0.60;;;;;;;;;;523023;28;1255;-84
2022/02/21 01:20:57;;;;;;;3.13;0.60;;;;;;;;;;525285;28;756;-84
2022/02/21 01:21:12;;;;;;;3.43;0.70;;;;;;;;;;523214;28;1177;-83
2022/02/21 01:21:28;;;;;;;2.97;0.65;;;;;;;;;;521631;28;840;-84
2022/02/21 01:21:43;;;;;;;3.60;0.60;;;;;;;;;;522907;28;864;-85
2022/02/21 01:21:58;;;;;;;4.03;0.60;;;;;;;;;;523416;28;991;-85
2022/02/21 01:22:13;;;;;;;3.30;0.50;;;;;;;;;;522542;28;1175;-83
2022/02/21 01:22:30;;;;;;;2.50;0.53;;;;;;;;;;522818;28;784;-84
2022/02/21 01:22:45;;;;;;;1.65;0.52;;;;;;;;;;524721;28;800;-84
2022/02/21 01:23:00;;;;;;;1.77;0.40;;;;;;;;;;525522;28;888;-84
2022/02/21 01:23:16;;;;;;;2.27;0.40;;;;;;;;;;525851;28;1168;-85
2022/02/21 01:23:31;;;;;;;2.43;0.60;;;;;;;;;;526603;28;1365;-84
2022/02/21 01:23:46;;;;;;;2.50;0.60;;;;;;;;;;526924;28;1268;-85
2022/02/21 01:24:02;;;;;;;3.03;0.60;;;;;;;;;;525853;28;1397;-84
2022/02/21 01:24:17;;;;;;;3.50;0.60;;;;;;;;;;524899;28;741;-84
2022/02/21 01:24:32;;;;;;;2.75;0.60;;;;;;;;;;522414;28;789;-84
2022/02/21 01:24:48;;;;;;;2.73;0.60;;;;;;;;;;522081;28;935;-83
2022/02/21 01:25:05;;;;;;;2.67;0.60;;;;;;;;;;522949;28;1503;-84
2022/02/21 01:25:21;;;;;;;2.67;0.70;;;;;;;;;;526919;28;930;-84
2022/02/21 01:25:36;;;;;;;3.27;0.70;;;;;;;;;;527721;28;962;-86
2022/02/21 01:25:51;;;;;;;3.65;0.65;;;;;;;;;;528814;28;1091;-84
2022/02/21 01:26:07;;;;;;;2.93;0.60;;;;;;;;;;528420;28;1319;-85
2022/02/21 01:26:22;;;;;;;3.00;0.60;;;;;;;;;;528871;28;725;-85
2022/02/21 01:26:37;;;;;;;3.97;0.70;;;;;;;;;;528733;28;803;-83
2022/02/21 01:26:53;;;;;;;3.50;0.70;;;;;;;;;;528529;28;1269;-83
2022/02/21 01:27:09;;;;;;;2.80;0.70;;;;;;;;;;528622;28;1201;-84
2022/02/21 01:27:25;;;;;;;3.38;0.70;;;;;;;;;;529091;28;803;-84
2022/02/21 01:27:40;;;;;;;3.42;0.80;;;;;;;;;;526513;28;1071;-81
2022/02/21 01:27:55;;;;;;;3.10;0.70;;;;;;;;;;522600;28;970;-84
2022/02/21 01:28:11;;;;;;;2.70;0.60;;;;;;;;;;523316;28;773;-84
2022/02/21 01:28:26;;;;;;;2.80;0.63;;;;;;;;;;523185;28;799;-84
2022/02/21 01:28:41;;;;;;;3.53;0.60;;;;;;;;;;523053;28;1014;-84
2022/02/21 01:28:56;;;;;;;3.73;0.60;;;;;;;;;;524831;28;737;-83
2022/02/21 01:29:12;;;;;;;3.40;0.67;;;;;;;;;;524921;28;1279;-83
2022/02/21 01:29:27;;;;;;;2.53;0.60;;;;;;;;;;526633;28;798;-84
2022/02/21 01:29:43;;;;;;;3.27;0.60;;;;;;;;;;528790;28;844;-83
2022/02/21 01:29:58;;;;;;;3.25;0.70;;;;;;;;;;528776;28;1590;-83
2022/02/21 01:30:14;;;;;;;2.70;0.70;;;;;;;;;;528220;28;1473;-83
2022/02/21 01:30:29;;;;;;;2.60;0.60;;;;;;;;;;528316;28;1317;-84
2022/02/21 01:30:44;;;;;;;3.13;0.70;;;;;;;;;;529052;28;1239;-83
2022/02/21 01:31:00;;;;;;;4.13;0.80;;;;;;;;;;528511;28;1433;-83
2022/02/21 01:31:15;;;;;;;3.35;0.70;;;;;;;;;;524362;28;1365;-83
2022/02/21 01:31:30;;;;;;;2.30;0.70;;;;;;;;;;524899;28;800;-83
2022/02/21 01:31:47;;;;;;;2.10;0.70;;;;;;;;;;524852;28;861;-83
2022/02/21 01:32:03;;;;;;;2.10;0.70;;;;;;;;;;523324;28;1248;-85
2022/02/21 01:32:18;;;;;;;2.70;0.70;;;;;;;;;;522533;28;697;-85
2022/02/21 01:32:34;;;;;;;3.00;0.70;;;;;;;;;;522767;28;780;-83
2022/02/21 01:32:49;;;;;;;2.80;0.73;;;;;;;;;;523173;28;753;-85
2022/02/21 01:33:05;;;;;;;3.83;0.80;;;;;;;;;;525928;28;871;-84
2022/02/21 01:33:20;;;;;;;3.65;0.80;;;;;;;;;;526845;28;819;-83
2022/02/21 01:33:35;;;;;;;2.43;0.60;;;;;;;;;;526918;28;918;-83
2022/02/21 01:33:50;;;;;;;3.17;0.60;;;;;;;;;;526535;28;776;-84
2022/02/21 01:34:06;;;;;;;3.17;0.60;;;;;;;;;;524131;28;1388;-83
2022/02/21 01:34:22;;;;;;;3.63;0.70;;;;;;;;;;526626;28;819;-84
2022/02/21 01:34:37;;;;;;;3.47;0.77;;;;;;;;;;524810;28;1237;-84
2022/02/21 01:34:52;;;;;;;3.63;0.70;;;;;;;;;;521901;28;1188;-83
2022/02/21 01:35:08;;;;;;;3.95;0.60;;;;;;;;;;522950;28;1563;-81
2022/02/21 01:35:24;;;;;;;2.83;0.60;;;;;;;;;;524725;28;888;-83
2022/02/21 01:35:40;;;;;;;2.70;0.70;;;;;;;;;;522586;28;823;-84
2022/02/21 01:35:56;;;;;;;3.27;0.70;;;;;;;;;;523073;28;824;-82
2022/02/21 01:36:11;;;;;;;3.55;0.73;;;;;;;;;;524546;28;1262;-83
2022/02/21 01:36:27;;;;;;;3.17;0.70;;;;;;;;;;523337;28;1289;-84
2022/02/21 01:36:42;;;;;;;4.03;0.70;;;;;;;;;;522713;28;1185;-83